Myrtle Beach, SC

3:52 PM EDT on July 24, 2016 (GMT -0400)
Ocean Lakes | | Change Station
Active Advisory: Heat Advisory

Elev 10 ft 33.62 °N, 78.96 °W | Updated 8 minutes ago

Scattered Clouds
Scattered Clouds
85.9 °F
Feels Like 92 °F
N
7.8
Wind Variable Wind from East

Today
High -- | Low -- °F
--% Chance of Precip.
Yesterday
High -- | Low -- °F
Precip. -- in
Pressure 30.04 in
Visibility 10.0 miles
Clouds Scattered Clouds 7500 ft
Heat Index 92 °F
Dew Point 72 °F
Humidity 63%
Rainfall 0.00 in
Snow Depth Not available.
6:22 AM 8:21 PM
Waning Gibbous, 73% visible
METAR KMYR 241945Z 18012KT 10SM SCT075 32/23 A3004
Pressure 30.04 in
Visibility 10.0 miles
Clouds Scattered Clouds 7500 ft
Heat Index 92 °F
Dew Point 72 °F
Humidity 63%
Rainfall 0.00 in
Snow Depth Not available.
6:22 AM 8:21 PM
Waning Gibbous, 73% visible
METAR KMYR 241945Z 18012KT 10SM SCT075 32/23 A3004

10-Day Weather Forecast

Almanac

Astronomy

Jul. 24, 2016 Rise Set
Actual Time
Civil Twilight
Nautical Twilight
Astronomical Twilight
Moon
Length of Visible Light
Length of Day
Tomorrow will be .
, % of the Moon is Illuminated

Today's Extremes

State Highs State Lows

Community

WunderPhotos

Upload Photos

1,927,176 photos uploaded!

WunderBlog® & News

Nearby

Air Quality

  Air Quality AQ Index Pollutant
Not available.

Snow Depth

Station Depth Elevation

Earthquake Activity

City Distance Mag. Time & Date
Minimum magnitude displayed is 2.5.

Coastal Water Temperatures

Place Temperature

Stations

Nearby Weather Stations

Station Location Temp. Windchill Dew Point Humidity Wind Precip. Elev Updated Type
                   

Watches & Warnings

Heat Advisory
Issued: 3:30 PM EDT Jul. 24, 2016 – National Weather Service

... Heat advisory remains in effect until 8 PM EDT this evening...

* heat index values... up to 106.

* Temperatures... in the lower 90s.

* Timing... the highest heat index values will occur through early
this evening.

* Impacts... the combination of hot temperatures and high
humidity will create a situation in which heat illnesses are
possible.

Precautionary/preparedness actions...

To reduce the risk of heat illness during outdoor work the
occupational safety and health administration recommends
scheduling frequent rest breaks in shaded or air conditioned
environments.

Never leave children or pets unattended in a closed up vehicle
during the day. In just 15 minutes... temperatures inside the
vehicle could easily surpass 140 degrees. Outdoor livestock and
pets will also need plenty of shade... a well ventilated
environment... and plenty of accessible drinking water.



17